Time;durP1;ratioP1;P1;durP2;ratioP2;P2;SDS_P1;SDS_P2;PMS_P1;PMS_P2;Temp;Humidity;BMP_temperature;BMP_pressure;BME280_temperature;BME280_humidity;BME280_pressure;Samples;Min_cycle;Max_cycle;Signal;HPM_P1;HPM_P2
2022/08/01 00:00:36;;;;;;;6.43;3.60;;;18.80;99.90;;;;;;5021819;28;37783;-60
2022/08/01 00:03:03;;;;;;;6.55;3.55;;;18.90;99.90;;;;;;5022206;28;38409;-60
2022/08/01 00:05:31;;;;;;;6.18;3.20;;;18.80;99.90;;;;;;5021779;28;37699;-60
2022/08/01 00:07:58;;;;;;;9.77;3.20;;;18.80;99.90;;;;;;5012364;28;38832;-60
2022/08/01 00:10:26;;;;;;;5.22;2.75;;;18.90;99.90;;;;;;5013517;28;37606;-60
2022/08/01 00:12:53;;;;;;;5.57;2.95;;;18.90;99.90;;;;;;5023899;28;36258;-60
2022/08/01 00:15:20;;;;;;;7.03;2.20;;;18.80;99.90;;;;;;5027985;28;37962;-60
2022/08/01 00:17:49;;;;;;;6.38;2.33;;;18.80;99.90;;;;;;5047591;28;37385;-60
2022/08/01 00:20:16;;;;;;;4.40;2.33;;;18.80;99.90;;;;;;5051265;28;36931;-60
2022/08/01 00:22:44;;;;;;;6.38;2.30;;;18.80;99.90;;;;;;5038749;28;36420;-60
2022/08/01 00:25:11;;;;;;;4.60;2.33;;;18.80;99.90;;;;;;5039989;28;37758;-60
2022/08/01 00:27:38;;;;;;;4.85;2.53;;;18.80;99.90;;;;;;5041027;28;38191;-60
2022/08/01 00:30:07;;;;;;;3.45;2.05;;;18.80;99.90;;;;;;5028416;28;36040;-60
2022/08/01 00:32:34;;;;;;;5.35;2.90;;;18.80;99.90;;;;;;5054088;28;36271;-60
2022/08/01 00:35:03;;;;;;;5.35;2.13;;;18.80;99.90;;;;;;5051749;28;38260;-60
2022/08/01 00:37:30;;;;;;;4.45;2.00;;;18.80;99.90;;;;;;5040726;28;37778;-60
2022/08/01 00:39:58;;;;;;;5.63;2.20;;;18.80;99.90;;;;;;5028829;28;36468;-60
2022/08/01 00:42:25;;;;;;;5.63;2.45;;;18.80;99.90;;;;;;5023588;28;38534;-60
2022/08/01 00:44:52;;;;;;;8.43;2.42;;;18.80;99.90;;;;;;5033378;28;38271;-60
2022/08/01 00:47:20;;;;;;;8.18;2.60;;;18.80;99.90;;;;;;5050274;28;35903;-60
2022/08/01 00:49:47;;;;;;;8.50;3.75;;;18.80;99.90;;;;;;5045976;28;36707;-60
2022/08/01 00:52:17;;;;;;;8.70;3.10;;;18.80;99.90;;;;;;5042765;28;20395;-60
2022/08/01 00:54:44;;;;;;;5.00;2.53;;;18.80;99.90;;;;;;5037235;28;37200;-60
2022/08/01 00:57:12;;;;;;;6.95;3.40;;;18.80;99.90;;;;;;5054915;28;37446;-60
2022/08/01 00:59:41;;;;;;;5.55;3.50;;;18.80;99.90;;;;;;5037688;28;37882;-60
2022/08/01 01:02:09;;;;;;;4.70;2.92;;;18.80;99.90;;;;;;5044050;28;37595;-60
2022/08/01 01:04:36;;;;;;;5.80;2.75;;;18.80;99.90;;;;;;5042727;28;37662;-60
2022/08/01 01:07:10;;;;;;;7.55;2.97;;;18.80;99.90;;;;;;5044604;28;38319;-60
2022/08/01 01:09:48;;;;;;;7.32;3.17;;;18.70;99.90;;;;;;5043515;28;36521;-60
2022/08/01 01:12:23;;;;;;;6.03;2.70;;;18.70;99.90;;;;;;5042469;28;36100;-60
2022/08/01 01:14:57;;;;;;;6.63;2.65;;;18.70;99.90;;;;;;5035559;28;38817;-60
2022/08/01 01:17:32;;;;;;;8.23;2.70;;;18.70;99.90;;;;;;5031887;28;37931;-60
2022/08/01 01:20:01;;;;;;;8.52;2.15;;;18.60;99.90;;;;;;5033001;28;36026;-60
2022/08/01 01:22:45;;;;;;;7.13;2.28;;;18.60;99.90;;;;;;5024716;28;37363;-60
2022/08/01 01:25:35;;;;;;;5.97;1.77;;;18.60;99.90;;;;;;5034453;28;36588;-60
2022/08/01 01:28:13;;;;;;;4.18;1.63;;;18.60;99.90;;;;;;5033139;28;39140;-60
2022/08/01 01:30:44;;;;;;;9.15;2.10;;;18.50;99.90;;;;;;5032669;28;37007;-60
2022/08/01 01:33:14;;;;;;;7.72;1.63;;;18.50;99.90;;;;;;5032739;28;36301;-60
2022/08/01 01:35:47;;;;;;;7.35;1.77;;;18.50;99.90;;;;;;5031129;28;37645;-60
2022/08/01 01:38:19;;;;;;;6.78;2.03;;;18.40;99.90;;;;;;5035115;28;36070;-60
2022/08/01 01:40:48;;;;;;;7.60;1.65;;;18.40;99.90;;;;;;5031666;28;37933;-60
2022/08/01 01:43:17;;;;;;;4.70;1.48;;;18.30;99.90;;;;;;5022814;28;37288;-60
2022/08/01 01:45:48;;;;;;;6.15;1.70;;;18.30;99.90;;;;;;5033883;28;38234;-60
2022/08/01 01:48:19;;;;;;;7.03;2.13;;;18.30;99.90;;;;;;5028586;28;37962;-60
2022/08/01 01:50:48;;;;;;;7.75;1.98;;;18.30;99.90;;;;;;5034648;28;37823;-60
2022/08/01 01:53:19;;;;;;;6.82;2.35;;;18.30;99.90;;;;;;5033194;28;37520;-60
2022/08/01 01:55:52;;;;;;;5.05;1.50;;;18.30;99.90;;;;;;5032968;28;38437;-60
2022/08/01 01:58:21;;;;;;;5.80;1.70;;;18.20;99.90;;;;;;5033028;28;37337;-60
2022/08/01 02:00:53;;;;;;;8.48;1.77;;;18.20;99.90;;;;;;5034147;28;35432;-60
2022/08/01 02:03:21;;;;;;;7.95;1.40;;;18.20;99.90;;;;;;5033169;28;36203;-60
2022/08/01 02:05:50;;;;;;;8.57;2.15;;;18.20;99.90;;;;;;5030609;28;37482;-60
2022/08/01 02:08:18;;;;;;;7.00;2.00;;;18.20;99.90;;;;;;5031818;28;37090;-60
2022/08/01 02:11:17;;;;;;;5.25;1.60;;;18.20;99.90;;;;;;5031226;28;36267;-60
2022/08/01 02:13:39;;;;;;;6.43;1.58;;;18.20;99.90;;;;;;5029955;28;40437;-60
2022/08/01 02:16:10;;;;;;;5.95;1.50;;;18.20;99.90;;;;;;5027638;28;37946;-60
2022/08/01 02:18:38;;;;;;;5.25;1.55;;;18.20;99.90;;;;;;5025496;28;38541;-60
2022/08/01 02:21:09;;;;;;;9.73;2.00;;;18.10;99.90;;;;;;5027355;28;36468;-60
2022/08/01 02:23:37;;;;;;;10.10;2.05;;;18.10;99.90;;;;;;5027170;28;37521;-60
2022/08/01 02:26:10;;;;;;;10.38;1.77;;;18.10;99.90;;;;;;5028940;28;37861;-60
2022/08/01 02:28:42;;;;;;;9.27;2.38;;;18.10;99.90;;;;;;5032473;28;37387;-60
2022/08/01 02:31:14;;;;;;;10.15;3.17;;;18.00;99.90;;;;;;5032849;28;36179;-60
2022/08/01 02:33:44;;;;;;;8.25;2.30;;;18.10;99.90;;;;;;5028944;28;36217;-60
2022/08/01 02:36:13;;;;;;;9.57;2.38;;;18.00;99.90;;;;;;5032727;28;37465;-60
2022/08/01 02:38:44;;;;;;;10.25;2.30;;;18.00;99.90;;;;;;5029854;28;37704;-60
2022/08/01 02:41:14;;;;;;;10.00;3.03;;;18.00;99.90;;;;;;5026703;28;38277;-60
2022/08/01 02:43:47;;;;;;;12.05;2.83;;;17.90;99.90;;;;;;5024424;28;38098;-60
2022/08/01 02:46:21;;;;;;;22.60;3.15;;;17.90;99.90;;;;;;5027460;28;37708;-60
2022/08/01 02:48:51;;;;;;;6.45;2.45;;;17.80;99.90;;;;;;5030977;28;38776;-60
2022/08/01 02:51:20;;;;;;;20.60;3.70;;;17.80;99.90;;;;;;5029753;28;36274;-60
2022/08/01 02:53:49;;;;;;;13.02;3.22;;;17.80;99.90;;;;;;5028779;28;36136;-60
2022/08/01 02:56:18;;;;;;;11.18;2.60;;;17.80;99.90;;;;;;5028381;28;35514;-60
2022/08/01 02:58:46;;;;;;;13.13;3.08;;;17.80;99.90;;;;;;5026841;28;37778;-60
2022/08/01 03:01:17;;;;;;;10.95;2.58;;;17.80;99.90;;;;;;5027811;28;37011;-60
2022/08/01 03:03:44;;;;;;;9.63;2.13;;;17.80;99.90;;;;;;5027541;28;36390;-60
2022/08/01 03:06:13;;;;;;;9.05;3.50;;;17.80;99.90;;;;;;5026340;28;37869;-60
2022/08/01 03:08:41;;;;;;;9.45;2.95;;;17.70;99.90;;;;;;5030484;28;37970;-60
2022/08/01 03:11:11;;;;;;;8.70;2.53;;;17.70;99.90;;;;;;5026947;28;39404;-60
2022/08/01 03:13:39;;;;;;;12.02;3.45;;;17.70;99.90;;;;;;5033325;28;36604;-60
2022/08/01 03:16:06;;;;;;;9.45;2.90;;;17.70;99.90;;;;;;5033398;28;40239;-60
2022/08/01 03:18:36;;;;;;;13.88;3.13;;;17.70;99.90;;;;;;5028511;28;37265;-60
2022/08/01 03:21:05;;;;;;;7.88;2.13;;;17.70;99.90;;;;;;5035898;28;36250;-60
2022/08/01 03:23:34;;;;;;;9.20;2.95;;;17.70;99.90;;;;;;5034905;28;39136;-60
2022/08/01 03:26:02;;;;;;;10.75;2.70;;;17.70;99.90;;;;;;5034393;28;36661;-60
2022/08/01 03:28:31;;;;;;;11.45;3.00;;;17.60;99.90;;;;;;5034805;28;37251;-60
2022/08/01 03:31:00;;;;;;;12.23;3.35;;;17.70;99.90;;;;;;5035598;28;37403;-60
2022/08/01 03:33:27;;;;;;;14.05;2.35;;;17.60;99.90;;;;;;5034169;28;37634;-60
2022/08/01 03:35:58;;;;;;;12.73;2.92;;;17.60;99.90;;;;;;5035442;28;36523;-60
2022/08/01 03:38:28;;;;;;;15.48;2.58;;;17.60;99.90;;;;;;5024372;28;37735;-60
2022/08/01 03:40:59;;;;;;;10.82;2.20;;;17.60;99.90;;;;;;5032398;28;36640;-59
2022/08/01 03:43:32;;;;;;;14.25;3.05;;;17.60;99.90;;;;;;5031508;28;38187;-59
2022/08/01 03:46:04;;;;;;;12.55;3.25;;;17.50;99.90;;;;;;5031375;28;37250;-60
2022/08/01 03:48:36;;;;;;;8.50;2.83;;;17.50;99.90;;;;;;5030017;28;37933;-60
2022/08/01 03:51:06;;;;;;;13.45;2.22;;;17.50;99.90;;;;;;5029990;28;36406;-60
2022/08/01 03:53:35;;;;;;;16.48;3.15;;;17.50;99.90;;;;;;5029039;28;36926;-60
2022/08/01 03:56:04;;;;;;;9.52;2.70;;;17.50;99.90;;;;;;5030649;28;38735;-60
2022/08/01 03:58:32;;;;;;;12.90;3.17;;;17.50;99.90;;;;;;5032414;28;37724;-59
2022/08/01 04:01:00;;;;;;;18.65;2.92;;;17.50;99.90;;;;;;5031886;28;37033;-60
2022/08/01 04:03:28;;;;;;;12.77;3.17;;;17.50;99.90;;;;;;5029042;28;37824;-59
2022/08/01 04:05:55;;;;;;;10.80;2.83;;;17.50;99.90;;;;;;5031111;28;36510;-59
2022/08/01 04:08:24;;;;;;;10.27;3.00;;;17.50;99.90;;;;;;5030843;28;37771;-60
2022/08/01 04:10:51;;;;;;;9.60;2.72;;;17.50;99.90;;;;;;5031916;28;36670;-60
2022/08/01 04:13:18;;;;;;;12.98;2.85;;;17.40;99.90;;;;;;5036300;28;38039;-59
2022/08/01 04:15:46;;;;;;;14.38;3.13;;;17.40;99.90;;;;;;5055413;28;36454;-60
2022/08/01 04:18:13;;;;;;;15.35;2.78;;;17.40;99.90;;;;;;5053798;28;38326;-60
2022/08/01 04:20:41;;;;;;;10.82;2.45;;;17.40;99.90;;;;;;5055551;28;36891;-60
2022/08/01 04:23:10;;;;;;;9.90;2.78;;;17.50;99.90;;;;;;5053311;28;37411;-60
2022/08/01 04:25:42;;;;;;;16.70;2.95;;;17.50;99.90;;;;;;5053977;28;39264;-59
2022/08/01 04:28:16;;;;;;;15.85;3.03;;;17.50;99.90;;;;;;5052966;28;38334;-60
2022/08/01 04:30:47;;;;;;;9.85;2.30;;;17.50;99.90;;;;;;5054482;28;35438;-60
2022/08/01 04:33:16;;;;;;;14.23;3.60;;;17.50;99.90;;;;;;5051408;28;42137;-60
2022/08/01 04:35:46;;;;;;;12.95;2.65;;;17.50;99.90;;;;;;5054121;28;37799;-60
2022/08/01 04:38:16;;;;;;;18.58;3.90;;;17.50;99.90;;;;;;5055096;28;38663;-60
2022/08/01 04:40:46;;;;;;;11.07;2.65;;;17.50;99.90;;;;;;5052404;28;37423;-60
2022/08/01 04:43:13;;;;;;;13.50;3.03;;;17.50;99.90;;;;;;5054745;28;37643;-60
2022/08/01 04:45:43;;;;;;;11.27;2.50;;;17.50;99.90;;;;;;5054546;28;39735;-60
2022/08/01 04:48:14;;;;;;;15.50;3.72;;;17.50;99.90;;;;;;5050722;28;37439;-60
2022/08/01 04:50:42;;;;;;;12.65;2.83;;;17.50;99.90;;;;;;5051128;28;37514;-59
2022/08/01 04:53:14;;;;;;;18.00;2.75;;;17.50;99.90;;;;;;5050917;28;37227;-60
2022/08/01 04:55:41;;;;;;;17.35;3.55;;;17.50;99.90;;;;;;5053485;28;37743;-60
2022/08/01 04:58:11;;;;;;;20.70;3.58;;;17.50;99.90;;;;;;5051783;28;38582;-60
2022/08/01 05:00:38;;;;;;;15.68;3.17;;;17.50;99.90;;;;;;5053256;28;37392;-59
2022/08/01 05:03:06;;;;;;;13.32;2.90;;;17.50;99.90;;;;;;5054298;28;38510;-59
2022/08/01 05:05:33;;;;;;;12.68;2.65;;;17.40;99.90;;;;;;5053949;28;38280;-60
2022/08/01 05:08:01;;;;;;;13.90;2.70;;;17.40;99.90;;;;;;5053640;28;37243;-60
2022/08/01 05:10:28;;;;;;;18.50;3.30;;;17.40;99.90;;;;;;5054187;28;36965;-60
2022/08/01 05:12:55;;;;;;;16.48;2.72;;;17.40;99.90;;;;;;5052727;28;36255;-60
2022/08/01 05:15:24;;;;;;;19.88;3.00;;;17.40;99.90;;;;;;5053461;28;37868;-60
2022/08/01 05:17:52;;;;;;;16.80;3.63;;;17.40;99.90;;;;;;5050502;28;37795;-60
2022/08/01 05:20:19;;;;;;;19.30;3.47;;;17.40;99.90;;;;;;5051898;28;36611;-60
2022/08/01 05:22:46;;;;;;;17.17;3.72;;;17.40;99.90;;;;;;5053007;28;38860;-60
2022/08/01 05:25:14;;;;;;;14.20;2.78;;;17.40;99.90;;;;;;5050807;28;38839;-60
2022/08/01 05:27:41;;;;;;;12.43;3.22;;;17.40;99.90;;;;;;5052099;28;36317;-60
2022/08/01 05:30:10;;;;;;;15.60;2.75;;;17.40;99.90;;;;;;5053765;28;36536;-60
2022/08/01 05:32:39;;;;;;;13.18;3.08;;;17.40;99.90;;;;;;5050851;28;38276;-60
2022/08/01 05:35:08;;;;;;;18.20;3.38;;;17.40;99.90;;;;;;5054406;28;36453;-60
2022/08/01 05:37:35;;;;;;;14.10;3.15;;;17.40;99.90;;;;;;5053752;28;36326;-60
2022/08/01 05:40:03;;;;;;;16.40;3.03;;;17.40;99.90;;;;;;5053493;28;35840;-60
2022/08/01 05:42:31;;;;;;;13.23;2.97;;;17.40;99.90;;;;;;5053190;28;37915;-60
2022/08/01 05:44:58;;;;;;;15.65;3.38;;;17.40;99.90;;;;;;5052948;28;38971;-59
2022/08/01 05:47:25;;;;;;;14.35;3.45;;;17.40;99.90;;;;;;5051837;28;36141;-60
2022/08/01 05:49:54;;;;;;;24.70;3.90;;;17.40;99.90;;;;;;5054673;28;38593;-60
2022/08/01 05:52:21;;;;;;;15.48;3.08;;;17.30;99.90;;;;;;5051921;28;37704;-60
2022/08/01 05:54:49;;;;;;;15.38;3.38;;;17.40;99.90;;;;;;5053504;28;38299;-59
2022/08/01 05:57:16;;;;;;;16.60;3.63;;;17.30;99.90;;;;;;5053735;28;37218;-59
2022/08/01 05:59:43;;;;;;;17.15;3.58;;;17.30;99.90;;;;;;5050412;28;36792;-60
2022/08/01 06:02:10;;;;;;;19.17;3.28;;;17.30;99.90;;;;;;5049193;28;36218;-59
2022/08/01 06:04:38;;;;;;;15.73;3.33;;;17.30;99.90;;;;;;5057474;28;37749;-60
2022/08/01 06:07:07;;;;;;;15.88;3.17;;;17.30;99.90;;;;;;5056654;28;37403;-60
2022/08/01 06:09:34;;;;;;;14.32;3.30;;;17.30;99.90;;;;;;5056812;28;37606;-60
2022/08/01 06:12:03;;;;;;;25.70;3.95;;;17.30;99.90;;;;;;5055134;28;38603;-60
2022/08/01 06:14:30;;;;;;;14.75;3.03;;;17.30;99.90;;;;;;5057465;28;39413;-59
2022/08/01 06:16:58;;;;;;;14.55;2.97;;;17.30;99.90;;;;;;5054867;28;38552;-59
2022/08/01 06:19:26;;;;;;;11.48;3.13;;;17.30;99.90;;;;;;5057915;28;37093;-60
2022/08/01 06:21:53;;;;;;;17.10;3.13;;;17.30;99.90;;;;;;5053126;28;38605;-59
2022/08/01 06:24:23;;;;;;;16.38;3.20;;;17.30;99.90;;;;;;5054488;28;37659;-60
2022/08/01 06:26:50;;;;;;;11.07;2.40;;;17.20;99.90;;;;;;5053503;28;38656;-59
2022/08/01 06:29:17;;;;;;;15.10;2.75;;;17.30;99.90;;;;;;5053582;28;36845;-60
2022/08/01 06:31:44;;;;;;;17.42;3.28;;;17.30;99.90;;;;;;5052463;28;39927;-59
2022/08/01 06:34:12;;;;;;;16.00;3.20;;;17.30;99.90;;;;;;5052871;28;36401;-60
2022/08/01 06:36:39;;;;;;;12.52;2.97;;;17.30;99.90;;;;;;5056147;28;37885;-59
2022/08/01 06:39:06;;;;;;;14.93;3.00;;;17.30;99.90;;;;;;5055366;28;36492;-60
2022/08/01 06:41:35;;;;;;;14.32;3.40;;;17.30;99.90;;;;;;5054473;28;38814;-60
2022/08/01 06:44:04;;;;;;;12.13;2.80;;;17.30;99.90;;;;;;5051551;28;36323;-59
2022/08/01 06:46:31;;;;;;;15.77;2.70;;;17.30;99.90;;;;;;5053773;28;37341;-60
2022/08/01 06:48:58;;;;;;;9.68;2.75;;;17.30;99.90;;;;;;5052274;28;36312;-59
2022/08/01 06:51:26;;;;;;;18.35;2.92;;;17.30;99.90;;;;;;5053359;28;37604;-60
2022/08/01 06:53:53;;;;;;;12.75;2.90;;;17.40;99.90;;;;;;5057221;28;37930;-60
2022/08/01 06:56:21;;;;;;;10.68;2.10;;;17.40;99.90;;;;;;5054920;28;39974;-59
2022/08/01 06:58:50;;;;;;;10.95;2.58;;;17.50;99.90;;;;;;5054767;28;38420;-59
2022/08/01 07:01:18;;;;;;;11.35;2.00;;;17.50;99.90;;;;;;5049517;28;38745;-60
2022/08/01 07:03:45;;;;;;;12.77;2.63;;;17.50;99.90;;;;;;5050085;28;38365;-60
2022/08/01 07:06:12;;;;;;;16.88;3.78;;;17.50;99.90;;;;;;5054399;28;38690;-60
2022/08/01 07:08:39;;;;;;;15.05;2.95;;;17.60;99.90;;;;;;5055744;28;36949;-60
2022/08/01 07:11:07;;;;;;;14.52;2.63;;;17.60;99.90;;;;;;5055701;28;36217;-60
2022/08/01 07:13:34;;;;;;;13.35;2.88;;;17.70;99.90;;;;;;5055162;28;38817;-59
2022/08/01 07:16:03;;;;;;;11.35;2.35;;;17.70;99.90;;;;;;5053019;28;37176;-59
2022/08/01 07:18:30;;;;;;;15.30;2.50;;;17.70;99.90;;;;;;5049455;28;36678;-59
2022/08/01 07:20:57;;;;;;;13.18;2.67;;;17.80;99.90;;;;;;5054516;28;36946;-59
2022/08/01 07:23:25;;;;;;;12.57;2.60;;;17.80;99.90;;;;;;5054089;28;39869;-59
2022/08/01 07:25:52;;;;;;;8.68;2.08;;;17.90;99.90;;;;;;5052076;28;39780;-59
2022/08/01 07:28:19;;;;;;;9.40;2.20;;;17.90;99.90;;;;;;5052937;28;36919;-59
2022/08/01 07:30:47;;;;;;;13.68;2.55;;;18.00;99.90;;;;;;5053603;28;36833;-59
2022/08/01 07:33:15;;;;;;;15.05;2.72;;;18.00;99.90;;;;;;5048322;28;39079;-59
2022/08/01 07:35:43;;;;;;;13.60;2.05;;;18.10;99.90;;;;;;5054097;28;36037;-59
2022/08/01 07:38:10;;;;;;;15.20;2.47;;;18.20;99.90;;;;;;5054779;28;36500;-59
2022/08/01 07:40:37;;;;;;;13.85;2.42;;;18.30;99.90;;;;;;5055727;28;38142;-59
2022/08/01 07:43:05;;;;;;;12.65;2.88;;;18.40;99.90;;;;;;5055139;28;37235;-59
2022/08/01 07:45:32;;;;;;;11.32;2.00;;;18.40;99.90;;;;;;5053840;28;38018;-59
2022/08/01 07:48:03;;;;;;;11.68;2.20;;;18.50;99.90;;;;;;5054056;28;35606;-59
2022/08/01 07:50:33;;;;;;;13.40;3.00;;;18.50;99.90;;;;;;5055986;28;38254;-59
2022/08/01 07:53:03;;;;;;;10.88;2.10;;;18.60;99.90;;;;;;5054747;28;39052;-59
2022/08/01 07:55:30;;;;;;;10.57;2.33;;;18.60;99.90;;;;;;5049321;28;39394;-59
2022/08/01 07:57:58;;;;;;;11.18;1.52;;;18.70;99.90;;;;;;5052187;28;39095;-59
2022/08/01 08:00:27;;;;;;;11.60;2.40;;;18.70;99.90;;;;;;5051940;28;36369;-59
2022/08/01 08:02:54;;;;;;;13.65;2.15;;;18.80;99.90;;;;;;5049784;28;37488;-59
2022/08/01 08:05:22;;;;;;;10.98;2.00;;;18.80;99.90;;;;;;5052264;28;38814;-59
2022/08/01 08:07:50;;;;;;;9.60;1.83;;;18.80;99.90;;;;;;5052268;28;38138;-59
2022/08/01 08:10:18;;;;;;;11.15;2.22;;;18.90;99.90;;;;;;5052557;28;38386;-59
2022/08/01 08:12:46;;;;;;;11.10;1.70;;;18.90;99.90;;;;;;5053013;28;38296;-59
2022/08/01 08:15:13;;;;;;;18.90;2.50;;;19.00;99.90;;;;;;5053467;28;37445;-59
2022/08/01 08:17:41;;;;;;;14.50;2.17;;;19.00;99.90;;;;;;5051750;28;38701;-59
2022/08/01 08:20:09;;;;;;;9.52;2.03;;;18.90;99.90;;;;;;5052534;28;37568;-59
2022/08/01 08:22:37;;;;;;;12.18;2.42;;;18.90;99.90;;;;;;5048822;28;37470;-59
2022/08/01 08:25:07;;;;;;;10.63;2.67;;;19.00;99.90;;;;;;5050649;28;36146;-59
2022/08/01 08:27:35;;;;;;;7.03;1.90;;;19.10;99.90;;;;;;5052761;28;37010;-59
2022/08/01 08:30:05;;;;;;;11.65;2.10;;;19.20;99.90;;;;;;5051564;28;38051;-59
2022/08/01 08:32:32;;;;;;;10.35;1.80;;;19.30;99.90;;;;;;5054555;28;36359;-59
2022/08/01 08:35:00;;;;;;;10.88;2.08;;;19.40;99.90;;;;;;5054808;28;37921;-60
2022/08/01 08:37:27;;;;;;;10.43;1.98;;;19.50;99.60;;;;;;5055656;28;37034;-59
2022/08/01 08:39:54;;;;;;;11.73;2.17;;;19.40;99.50;;;;;;5051601;28;37909;-59
2022/08/01 08:42:23;;;;;;;9.50;2.20;;;19.50;99.50;;;;;;5053881;28;37953;-59
2022/08/01 08:44:54;;;;;;;12.32;2.17;;;19.40;99.20;;;;;;5055113;28;37992;-59
2022/08/01 08:47:23;;;;;;;11.30;2.15;;;19.40;99.20;;;;;;5053528;28;36259;-59
2022/08/01 08:49:52;;;;;;;7.10;1.63;;;19.30;99.00;;;;;;5053984;28;39572;-59
2022/08/01 08:52:21;;;;;;;15.23;2.13;;;19.30;98.50;;;;;;5054379;28;38139;-59
2022/08/01 08:54:50;;;;;;;10.77;1.63;;;19.40;98.50;;;;;;5054839;28;36960;-59
2022/08/01 08:57:20;;;;;;;14.40;2.47;;;19.50;98.60;;;;;;5054240;28;36820;-59
2022/08/01 08:59:51;;;;;;;7.85;2.05;;;19.60;98.20;;;;;;5054053;28;38669;-59
2022/08/01 09:02:18;;;;;;;8.02;1.80;;;19.60;98.20;;;;;;5053687;28;38705;-59
2022/08/01 09:04:48;;;;;;;11.43;1.73;;;19.80;98.20;;;;;;5054479;28;37529;-59
2022/08/01 09:07:16;;;;;;;11.18;1.77;;;19.70;97.50;;;;;;5055251;28;37088;-59
2022/08/01 09:09:43;;;;;;;9.52;1.83;;;19.70;97.40;;;;;;5054542;28;36627;-59
2022/08/01 09:12:10;;;;;;;10.48;1.60;;;19.70;97.20;;;;;;5055227;28;38624;-59
2022/08/01 09:14:46;;;;;;;11.10;1.63;;;19.70;97.50;;;;;;5037823;28;37236;-59
2022/08/01 09:17:16;;;;;;;10.30;1.85;;;19.80;98.40;;;;;;5033049;28;37855;-59
2022/08/01 09:19:44;;;;;;;11.75;1.70;;;19.90;99.10;;;;;;5031039;28;39766;-59
2022/08/01 09:22:13;;;;;;;9.73;1.67;;;20.00;98.00;;;;;;5033011;28;37412;-59
2022/08/01 09:24:42;;;;;;;11.65;1.90;;;20.00;97.50;;;;;;5033240;28;37139;-59
2022/08/01 09:27:20;;;;;;;7.93;1.98;;;20.00;97.00;;;;;;5034029;28;36386;-59
2022/08/01 09:29:48;;;;;;;7.78;1.83;;;20.00;97.30;;;;;;5032005;28;37290;-59
2022/08/01 09:32:16;;;;;;;10.18;2.13;;;20.00;97.80;;;;;;5032921;28;38089;-59
2022/08/01 09:34:46;;;;;;;8.07;1.65;;;20.00;96.80;;;;;;5033234;28;36124;-59
2022/08/01 09:37:17;;;;;;;11.05;1.60;;;19.90;96.60;;;;;;5033885;28;37096;-59
2022/08/01 09:39:45;;;;;;;11.10;2.25;;;19.90;96.70;;;;;;5032416;28;38459;-59
2022/08/01 09:42:30;;;;;;;11.63;1.70;;;20.00;96.90;;;;;;5032150;28;39323;-59
2022/08/01 09:44:58;;;;;;;8.77;1.52;;;20.10;96.30;;;;;;5033166;28;36835;-59
2022/08/01 09:47:38;;;;;;;10.35;1.65;;;20.10;96.40;;;;;;5030993;28;37801;-59
2022/08/01 09:50:06;;;;;;;8.10;1.77;;;20.10;95.80;;;;;;5031549;28;37605;-59
2022/08/01 09:52:34;;;;;;;7.88;1.65;;;20.10;96.80;;;;;;5032103;28;38720;-59
2022/08/01 09:55:04;;;;;;;8.50;1.60;;;20.20;97.20;;;;;;5033646;28;37136;-59
2022/08/01 09:57:31;;;;;;;6.32;1.35;;;20.30;96.60;;;;;;5033630;28;36724;-59
2022/08/01 10:00:01;;;;;;;10.35;1.98;;;20.40;96.00;;;;;;5031486;28;37271;-59
2022/08/01 10:02:32;;;;;;;9.48;2.25;;;20.50;96.40;;;;;;5033330;28;38639;-59
2022/08/01 10:04:59;;;;;;;10.98;1.40;;;20.60;95.00;;;;;;5033388;28;36241;-59
2022/08/01 10:07:27;;;;;;;8.27;1.45;;;20.60;94.30;;;;;;5032473;28;35162;-59
2022/08/01 10:09:55;;;;;;;7.82;1.40;;;20.70;94.90;;;;;;5030399;28;37569;-57
2022/08/01 10:12:24;;;;;;;8.68;1.90;;;20.80;95.80;;;;;;5031139;28;38004;-57
2022/08/01 10:14:55;;;;;;;9.63;2.35;;;20.80;94.70;;;;;;5031755;28;37440;-59
2022/08/01 10:17:25;;;;;;;9.98;2.47;;;20.70;94.60;;;;;;5030621;28;36795;-59
2022/08/01 10:19:55;;;;;;;9.00;1.70;;;20.50;94.30;;;;;;5031511;28;37395;-59
2022/08/01 10:22:26;;;;;;;6.15;1.63;;;20.60;95.30;;;;;;5031748;28;37525;-59
2022/08/01 10:24:56;;;;;;;8.63;2.00;;;20.70;94.80;;;;;;5032684;28;37280;-59
2022/08/01 10:27:24;;;;;;;9.70;1.50;;;20.70;93.40;;;;;;5031436;28;36406;-59
2022/08/01 10:29:57;;;;;;;8.23;1.67;;;20.80;93.10;;;;;;5030088;28;37462;-59
2022/08/01 10:32:24;;;;;;;9.65;1.60;;;20.80;93.20;;;;;;5028763;28;36810;-59
2022/08/01 10:34:53;;;;;;;8.02;1.35;;;21.00;93.70;;;;;;5033257;28;38516;-59
2022/08/01 10:37:21;;;;;;;9.90;2.03;;;21.10;92.90;;;;;;5018816;28;37416;-59
2022/08/01 10:39:51;;;;;;;12.35;1.73;;;21.00;92.70;;;;;;5032780;28;40622;-59
2022/08/01 10:42:19;;;;;;;8.40;1.42;;;21.00;92.60;;;;;;5031609;28;37886;-59
2022/08/01 10:44:47;;;;;;;9.98;1.50;;;21.10;92.20;;;;;;5033084;28;38020;-59
2022/08/01 10:47:19;;;;;;;6.70;1.25;;;21.20;93.10;;;;;;5032539;28;38310;-59
2022/08/01 10:49:51;;;;;;;6.97;1.48;;;21.20;91.80;;;;;;5035098;28;37187;-59
2022/08/01 10:52:20;;;;;;;10.77;1.35;;;21.20;91.30;;;;;;5027713;28;37606;-59
2022/08/01 10:54:48;;;;;;;13.48;1.92;;;21.30;91.00;;;;;;5035817;28;36898;-59
2022/08/01 10:57:17;;;;;;;8.85;1.65;;;21.30;90.80;;;;;;5036310;28;35354;-59
2022/08/01 10:59:53;;;;;;;6.53;1.35;;;21.30;91.00;;;;;;5032955;28;37715;-59
2022/08/01 11:02:29;;;;;;;6.85;1.10;;;21.30;91.00;;;;;;5027090;28;37810;-59
2022/08/01 11:05:01;;;;;;;7.68;1.50;;;21.20;90.60;;;;;;5033842;28;38392;-59
2022/08/01 11:07:44;;;;;;;7.97;1.45;;;21.00;90.10;;;;;;5032985;28;37437;-59
2022/08/01 11:10:20;;;;;;;7.10;1.30;;;20.90;88.20;;;;;;5031031;28;38352;-59
2022/08/01 11:12:47;;;;;;;8.70;1.40;;;20.90;90.80;;;;;;5033951;28;37718;-59
2022/08/01 11:15:25;;;;;;;7.05;1.20;;;21.00;90.30;;;;;;5054152;28;38506;-59
2022/08/01 11:17:53;;;;;;;9.93;1.88;;;21.00;89.30;;;;;;5054363;28;37271;-59
2022/08/01 11:20:22;;;;;;;5.35;1.30;;;21.10;90.40;;;;;;5055237;28;39456;-59
2022/08/01 11:23:28;;;;;;;7.30;1.30;;;21.00;89.80;;;;;;5055980;28;38532;-59
2022/08/01 11:26:14;;;;;;;5.97;1.55;;;21.00;87.40;;;;;;5054182;28;38075;-59
2022/08/01 11:28:44;;;;;;;6.28;1.40;;;21.00;86.80;;;;;;5053256;28;36658;-59
2022/08/01 11:31:29;;;;;;;7.88;1.38;;;21.00;88.80;;;;;;5054173;28;36194;-59
2022/08/01 11:33:57;;;;;;;5.13;1.23;;;21.00;89.30;;;;;;5052192;28;37537;-59
2022/08/01 11:36:24;;;;;;;7.20;1.10;;;21.10;89.40;;;;;;5055557;28;37990;-59
2022/08/01 11:39:17;;;;;;;7.07;1.45;;;21.10;88.50;;;;;;5054771;28;37533;-59
2022/08/01 11:41:47;;;;;;;10.60;2.45;;;21.10;89.00;;;;;;5052642;28;36551;-59
2022/08/01 11:44:17;;;;;;;7.70;1.52;;;21.10;89.80;;;;;;5051846;28;38359;-59
2022/08/01 11:46:50;;;;;;;7.07;1.13;;;21.10;87.50;;;;;;5054534;28;36099;-59
2022/08/01 11:49:32;;;;;;;8.35;1.17;;;21.20;89.30;;;;;;5054031;28;36471;-59
2022/08/01 11:52:02;;;;;;;8.45;1.80;;;21.20;85.60;;;;;;5054796;28;38157;-59
2022/08/01 11:54:31;;;;;;;6.95;1.80;;;21.20;85.70;;;;;;5054793;28;38619;-59
2022/08/01 11:57:02;;;;;;;8.98;1.73;;;21.20;87.50;;;;;;5054747;28;38793;-59
2022/08/01 11:59:37;;;;;;;6.28;1.00;;;21.20;85.20;;;;;;5052327;28;37923;-59
2022/08/01 12:02:04;;;;;;;9.10;1.30;;;21.10;84.60;;;;;;5053615;28;37453;-59
2022/08/01 12:04:46;;;;;;;6.50;1.45;;;21.00;83.90;;;;;;5053057;28;35873;-59
2022/08/01 12:07:14;;;;;;;8.13;1.30;;;20.90;82.70;;;;;;5055085;28;37755;-59
2022/08/01 12:09:42;;;;;;;6.45;1.17;;;20.90;83.10;;;;;;5052149;28;36388;-59
2022/08/01 12:12:11;;;;;;;6.00;1.60;;;20.90;84.00;;;;;;5053437;28;37456;-59
2022/08/01 12:14:39;;;;;;;7.05;1.48;;;21.00;85.90;;;;;;5053028;28;36515;-59
2022/08/01 12:17:07;;;;;;;6.68;1.35;;;21.00;84.00;;;;;;5051847;28;36284;-59
2022/08/01 12:19:36;;;;;;;6.40;1.65;;;21.00;83.30;;;;;;5051693;28;37739;-59
2022/08/01 12:22:11;;;;;;;10.63;1.80;;;21.10;85.30;;;;;;5055611;28;36442;-59
2022/08/01 12:24:41;;;;;;;9.32;1.67;;;21.10;82.50;;;;;;5054788;28;38699;-59
2022/08/01 12:27:12;;;;;;;5.78;1.30;;;21.10;83.40;;;;;;5053769;28;36928;-59
2022/08/01 12:29:41;;;;;;;7.13;1.02;;;21.10;83.00;;;;;;5054026;28;37575;-59
2022/08/01 12:32:26;;;;;;;9.20;1.77;;;21.10;83.60;;;;;;5053375;28;39197;-59
2022/08/01 12:34:55;;;;;;;8.05;1.20;;;21.10;79.50;;;;;;5053545;28;37108;-59
2022/08/01 12:37:23;;;;;;;6.97;1.40;;;20.90;80.50;;;;;;5053550;28;36994;-59
2022/08/01 12:39:51;;;;;;;10.20;1.70;;;20.80;80.00;;;;;;5054065;28;36443;-59
2022/08/01 12:42:20;;;;;;;6.75;1.20;;;20.80;82.30;;;;;;5053483;28;36400;-59
2022/08/01 12:44:51;;;;;;;5.85;1.63;;;20.80;85.40;;;;;;5053948;28;38400;-59
2022/08/01 12:47:19;;;;;;;6.85;1.10;;;20.90;85.70;;;;;;5054097;28;37620;-59
2022/08/01 12:49:48;;;;;;;6.22;1.73;;;21.00;89.10;;;;;;5053812;28;35289;-59
2022/08/01 12:52:21;;;;;;;6.55;1.45;;;21.00;89.40;;;;;;5054421;28;36218;-59
2022/08/01 12:55:09;;;;;;;;;;;21.00;90.10;;;;;;5053672;28;37610;-59